Time;durP1;ratioP1;P1;durP2;ratioP2;P2;SDS_P1;SDS_P2;PMS_P1;PMS_P2;Temp;Humidity;BMP_temperature;BMP_pressure;BME280_temperature;BME280_humidity;BME280_pressure;Samples;Min_cycle;Max_cycle;Signal;HPM_P1;HPM_P2
2022/07/06 00:02:22;;;;;;;3.03;1.87;;;14.70;99.90;;;;;;6135740;23;20635;-81
2022/07/06 00:04:49;;;;;;;2.00;1.80;;;14.70;99.90;;;;;;6184702;23;20175;-81
2022/07/06 00:07:16;;;;;;;3.13;1.73;;;14.60;99.90;;;;;;6185368;23;20234;-81
2022/07/06 00:09:43;;;;;;;2.97;1.60;;;14.70;99.90;;;;;;6160644;23;20213;-81
2022/07/06 00:12:10;;;;;;;3.93;1.60;;;14.80;99.90;;;;;;6136773;23;20685;-81
2022/07/06 00:14:37;;;;;;;3.10;1.70;;;14.70;99.90;;;;;;6160269;23;20182;-81
2022/07/06 00:17:04;;;;;;;4.60;1.50;;;14.70;99.90;;;;;;6136919;23;20540;-80
2022/07/06 00:19:31;;;;;;;3.10;1.70;;;14.80;99.90;;;;;;6209182;23;20591;-81
2022/07/06 00:21:58;;;;;;;1.93;1.77;;;14.80;99.90;;;;;;6183643;23;20238;-81
2022/07/06 00:24:25;;;;;;;3.33;1.57;;;14.80;99.90;;;;;;6137353;23;20877;-81
2022/07/06 00:26:52;;;;;;;3.93;1.87;;;14.70;99.90;;;;;;6185708;23;20223;-81
2022/07/06 00:29:19;;;;;;;2.90;1.47;;;14.50;99.90;;;;;;6185128;23;20174;-80
2022/07/06 00:31:46;;;;;;;3.13;1.80;;;14.60;99.90;;;;;;6162028;23;20480;-80
2022/07/06 00:34:13;;;;;;;3.90;1.93;;;14.40;99.90;;;;;;6136314;23;20170;-81
2022/07/06 00:36:40;;;;;;;2.53;1.60;;;14.30;99.90;;;;;;6160625;23;20166;-81
2022/07/06 00:39:07;;;;;;;3.90;1.90;;;14.20;99.90;;;;;;6160841;23;20213;-81
2022/07/06 00:41:34;;;;;;;3.43;1.60;;;14.10;99.90;;;;;;6161620;23;20189;-80
2022/07/06 00:44:09;;;;;;;2.57;1.77;;;14.00;99.90;;;;;;6162786;23;20679;-81
2022/07/06 00:46:36;;;;;;;2.97;1.97;;;13.80;99.90;;;;;;6187185;23;20161;-80
2022/07/06 00:49:03;;;;;;;3.03;1.80;;;13.70;99.90;;;;;;6161955;23;20214;-81
2022/07/06 00:51:35;;;;;;;2.77;1.70;;;13.60;99.90;;;;;;6186295;23;20173;-81
2022/07/06 00:54:04;;;;;;;3.10;1.93;;;13.60;99.90;;;;;;6211950;23;20252;-81
2022/07/06 00:56:32;;;;;;;2.93;1.80;;;13.80;99.90;;;;;;6186927;23;20569;-81
2022/07/06 00:59:02;;;;;;;2.90;1.70;;;13.90;99.90;;;;;;6160683;23;20225;-80
2022/07/06 01:01:29;;;;;;;4.23;1.60;;;14.00;99.90;;;;;;6184764;23;20206;-80
2022/07/06 01:03:57;;;;;;;2.67;1.70;;;14.10;99.90;;;;;;6186186;23;20249;-80
2022/07/06 01:06:24;;;;;;;1.90;1.30;;;14.10;99.90;;;;;;6185117;23;20605;-80
2022/07/06 01:08:51;;;;;;;2.67;1.70;;;14.10;99.90;;;;;;6185377;23;20162;-80
2022/07/06 01:11:19;;;;;;;2.40;1.67;;;14.00;99.90;;;;;;6160696;23;20177;-80
2022/07/06 01:13:47;;;;;;;2.87;1.50;;;14.00;99.90;;;;;;6161521;23;20161;-80
2022/07/06 01:16:15;;;;;;;2.17;1.60;;;14.10;99.90;;;;;;6135490;23;20164;-80
2022/07/06 01:18:42;;;;;;;4.47;1.80;;;14.10;99.90;;;;;;6162249;23;20232;-81
2022/07/06 01:21:12;;;;;;;2.20;1.80;;;14.20;99.90;;;;;;6159916;23;20169;-81
2022/07/06 01:23:44;;;;;;;4.53;2.20;;;14.00;99.90;;;;;;6186087;23;20199;-80
2022/07/06 01:26:19;;;;;;;3.83;1.80;;;14.00;99.90;;;;;;6185431;23;20231;-80
2022/07/06 01:28:50;;;;;;;2.70;2.10;;;14.10;99.90;;;;;;6186486;23;20164;-81
2022/07/06 01:31:25;;;;;;;3.07;1.80;;;14.10;99.90;;;;;;6135719;23;20160;-80
2022/07/06 01:33:54;;;;;;;2.57;1.90;;;13.90;99.90;;;;;;6185771;23;20624;-81
2022/07/06 01:36:21;;;;;;;3.30;2.00;;;13.80;99.90;;;;;;6182098;23;20620;-80
2022/07/06 01:38:50;;;;;;;1.97;1.70;;;13.70;99.90;;;;;;6159829;23;20157;-80
2022/07/06 01:41:17;;;;;;;1.83;1.50;;;13.80;99.90;;;;;;6184655;23;20255;-80
2022/07/06 01:43:44;;;;;;;3.67;2.70;;;14.00;99.90;;;;;;6184387;23;20225;-80
2022/07/06 01:46:12;;;;;;;1.87;1.63;;;13.80;99.90;;;;;;6159308;23;20162;-81
2022/07/06 01:48:39;;;;;;;2.87;2.00;;;13.90;99.90;;;;;;6136298;23;20167;-81
2022/07/06 01:51:06;;;;;;;2.63;1.67;;;14.00;99.90;;;;;;6183543;23;20593;-81
2022/07/06 01:53:33;;;;;;;6.00;1.90;;;13.90;99.90;;;;;;6159982;23;20166;-80
2022/07/06 01:56:00;;;;;;;2.10;1.27;;;13.90;99.90;;;;;;6160252;23;20667;-80
2022/07/06 01:58:27;;;;;;;2.37;1.60;;;13.80;99.90;;;;;;6135521;23;20172;-81
2022/07/06 02:00:54;;;;;;;1.87;1.63;;;13.60;99.90;;;;;;6158534;23;20209;-80
2022/07/06 02:03:21;;;;;;;2.00;1.73;;;13.70;99.90;;;;;;6136785;23;20157;-80
2022/07/06 02:05:48;;;;;;;2.73;1.93;;;13.50;99.90;;;;;;6159816;23;20540;-81
2022/07/06 02:08:15;;;;;;;3.07;1.60;;;13.50;99.90;;;;;;6136014;23;20175;-81
2022/07/06 02:10:42;;;;;;;4.23;1.90;;;13.50;99.90;;;;;;6211193;23;20303;-81
2022/07/06 02:13:09;;;;;;;2.13;1.53;;;13.60;99.90;;;;;;6160225;23;20201;-81
2022/07/06 02:15:36;;;;;;;2.47;1.90;;;13.50;99.90;;;;;;6160718;23;20620;-81
2022/07/06 02:18:03;;;;;;;2.57;1.90;;;13.50;99.90;;;;;;6158892;23;20602;-81
2022/07/06 02:20:30;;;;;;;3.20;2.07;;;13.60;99.90;;;;;;6135257;23;20191;-81
2022/07/06 02:23:00;;;;;;;2.80;1.70;;;13.50;99.90;;;;;;6161871;23;20169;-80
2022/07/06 02:25:27;;;;;;;4.93;2.00;;;13.50;99.90;;;;;;6136500;23;20597;-80
2022/07/06 02:27:53;;;;;;;2.50;2.23;;;13.40;99.90;;;;;;6160687;23;20219;-80
2022/07/06 02:30:20;;;;;;;2.90;2.47;;;13.40;99.90;;;;;;6136542;23;20188;-80
2022/07/06 02:32:48;;;;;;;3.27;2.50;;;13.40;99.90;;;;;;6184880;23;20566;-80
2022/07/06 02:35:14;;;;;;;2.20;2.00;;;13.40;99.90;;;;;;6160613;23;20166;-80
2022/07/06 02:37:41;;;;;;;2.83;1.97;;;13.40;99.90;;;;;;6136256;23;20618;-81
2022/07/06 02:40:09;;;;;;;5.40;2.30;;;13.40;99.90;;;;;;6159943;23;20206;-80
2022/07/06 02:42:36;;;;;;;6.00;2.30;;;13.50;99.90;;;;;;6186332;23;20260;-80
2022/07/06 02:45:04;;;;;;;4.23;2.40;;;13.50;99.90;;;;;;6185311;23;20219;-78
2022/07/06 02:47:31;;;;;;;4.07;2.73;;;13.40;99.90;;;;;;6187564;23;20207;-80
2022/07/06 02:49:58;;;;;;;4.23;2.80;;;13.10;99.90;;;;;;6162027;23;20215;-79
2022/07/06 02:52:25;;;;;;;2.63;2.27;;;13.10;99.90;;;;;;6165792;23;20168;-80
2022/07/06 02:54:53;;;;;;;3.53;2.60;;;13.10;99.90;;;;;;6143851;23;20181;-79
2022/07/06 02:57:20;;;;;;;3.97;2.23;;;13.20;99.90;;;;;;6143836;23;20227;-81
2022/07/06 02:59:49;;;;;;;3.43;2.50;;;13.20;99.90;;;;;;6189060;23;20183;-79
2022/07/06 03:02:17;;;;;;;3.30;2.47;;;13.10;99.90;;;;;;6192705;23;20166;-79
2022/07/06 03:04:44;;;;;;;4.00;2.40;;;13.00;99.90;;;;;;6165805;23;20166;-81
2022/07/06 03:07:10;;;;;;;4.00;2.60;;;13.10;99.90;;;;;;6141059;23;20184;-79
2022/07/06 03:09:37;;;;;;;6.60;3.30;;;13.20;99.90;;;;;;6165649;23;20226;-78
2022/07/06 03:12:05;;;;;;;4.33;2.67;;;13.20;99.90;;;;;;6187009;23;20166;-79
2022/07/06 03:14:31;;;;;;;6.27;3.40;;;13.20;99.90;;;;;;6139900;23;20169;-82
2022/07/06 03:16:58;;;;;;;5.33;2.90;;;13.30;99.90;;;;;;6138821;23;20219;-80
2022/07/06 03:19:25;;;;;;;4.63;2.97;;;13.20;99.90;;;;;;6139493;23;20180;-80
2022/07/06 03:21:52;;;;;;;3.20;2.90;;;13.20;99.90;;;;;;6163612;23;20157;-78
2022/07/06 03:24:19;;;;;;;5.00;3.07;;;13.10;99.90;;;;;;6163271;23;20161;-82
2022/07/06 03:26:46;;;;;;;5.87;2.97;;;13.00;99.90;;;;;;6136821;23;20161;-80
2022/07/06 03:29:13;;;;;;;4.83;3.00;;;13.00;99.90;;;;;;6186648;23;20833;-80
2022/07/06 03:31:40;;;;;;;2.80;2.40;;;13.10;99.90;;;;;;6187393;23;20156;-81
2022/07/06 03:34:07;;;;;;;4.57;2.87;;;13.20;99.90;;;;;;6137126;23;20164;-82
2022/07/06 03:36:34;;;;;;;3.43;3.07;;;13.20;99.90;;;;;;6162143;23;20164;-81
2022/07/06 03:39:05;;;;;;;3.63;2.80;;;13.00;99.90;;;;;;6187485;23;20156;-81
2022/07/06 03:41:33;;;;;;;4.63;2.97;;;13.00;99.90;;;;;;6187025;23;20255;-81
2022/07/06 03:43:59;;;;;;;5.17;3.33;;;13.00;99.90;;;;;;6185885;23;20204;-80
2022/07/06 03:46:28;;;;;;;5.67;2.90;;;12.90;99.90;;;;;;6212214;23;20160;-81
2022/07/06 03:48:55;;;;;;;5.80;3.20;;;13.00;99.90;;;;;;6186541;23;20171;-81
2022/07/06 03:51:22;;;;;;;3.17;2.87;;;12.90;99.90;;;;;;6161475;23;20216;-81
2022/07/06 03:53:49;;;;;;;4.23;2.80;;;12.60;99.90;;;;;;6138415;23;20161;-81
2022/07/06 03:56:28;;;;;;;3.30;3.00;;;12.60;99.90;;;;;;6136772;23;20199;-79
2022/07/06 03:58:59;;;;;;;3.77;3.00;;;12.70;99.90;;;;;;6139858;23;20271;-80
2022/07/06 04:01:27;;;;;;;4.00;3.00;;;12.70;99.90;;;;;;6162410;23;20247;-80
2022/07/06 04:03:54;;;;;;;3.67;3.00;;;12.70;99.90;;;;;;6161510;23;20177;-80
2022/07/06 04:06:21;;;;;;;3.10;2.63;;;12.90;99.90;;;;;;6136565;23;20267;-80
2022/07/06 04:08:48;;;;;;;3.80;3.07;;;12.60;99.90;;;;;;6161142;23;20153;-80
2022/07/06 04:11:15;;;;;;;4.03;2.93;;;12.70;99.90;;;;;;6159300;23;20169;-80
2022/07/06 04:13:42;;;;;;;5.80;2.83;;;12.80;99.90;;;;;;6161593;23;20162;-79
2022/07/06 04:16:09;;;;;;;3.90;2.50;;;12.80;99.90;;;;;;6160564;23;20498;-80
2022/07/06 04:18:36;;;;;;;4.93;2.83;;;12.80;99.90;;;;;;6136159;23;20165;-80
2022/07/06 04:21:03;;;;;;;4.87;2.73;;;12.80;99.90;;;;;;6185153;23;20258;-80
2022/07/06 04:23:30;;;;;;;3.27;2.70;;;12.90;99.90;;;;;;6138142;23;20188;-79
2022/07/06 04:25:57;;;;;;;6.90;3.20;;;12.90;99.90;;;;;;6213506;23;20161;-80
2022/07/06 04:28:24;;;;;;;3.83;2.70;;;12.90;99.90;;;;;;6160423;23;20585;-80
2022/07/06 04:30:51;;;;;;;6.40;2.97;;;13.00;99.90;;;;;;6160448;23;20168;-80
2022/07/06 04:33:18;;;;;;;3.83;2.83;;;13.00;99.90;;;;;;6161249;23;20481;-80
2022/07/06 04:35:45;;;;;;;3.60;2.70;;;13.10;99.90;;;;;;6160252;23;20173;-80
2022/07/06 04:38:12;;;;;;;6.67;2.70;;;13.10;99.90;;;;;;6160397;23;20165;-81
2022/07/06 04:40:39;;;;;;;3.33;2.90;;;13.20;99.90;;;;;;6160842;23;20633;-80
2022/07/06 04:43:06;;;;;;;4.37;2.93;;;13.20;99.90;;;;;;6136474;23;20240;-79
2022/07/06 04:45:32;;;;;;;10.17;9.17;;;13.20;99.90;;;;;;6160487;23;20547;-80
2022/07/06 04:47:59;;;;;;;16.57;15.07;;;13.20;99.90;;;;;;6138643;23;20208;-81
2022/07/06 04:50:26;;;;;;;25.70;23.13;;;13.10;99.90;;;;;;6161567;23;20173;-79
2022/07/06 04:52:53;;;;;;;20.97;18.47;;;13.10;99.90;;;;;;6161075;23;20232;-79
2022/07/06 04:55:20;;;;;;;17.13;14.27;;;13.00;99.90;;;;;;6161252;23;20218;-79
2022/07/06 04:57:47;;;;;;;13.60;12.20;;;13.10;99.90;;;;;;6160481;23;20215;-80
2022/07/06 05:00:14;;;;;;;9.47;7.93;;;13.30;99.90;;;;;;6183884;23;20188;-81
2022/07/06 05:02:41;;;;;;;7.13;6.43;;;13.20;99.90;;;;;;6186329;23;20839;-80
2022/07/06 05:05:09;;;;;;;7.37;6.00;;;13.20;99.90;;;;;;6158890;23;20192;-79
2022/07/06 05:07:39;;;;;;;9.30;5.80;;;13.30;99.90;;;;;;6185521;23;20245;-81
2022/07/06 05:10:08;;;;;;;10.27;5.63;;;13.50;99.90;;;;;;6161246;23;20172;-81
2022/07/06 05:12:35;;;;;;;7.97;5.40;;;13.50;99.90;;;;;;6184771;23;20205;-81
2022/07/06 05:15:03;;;;;;;5.57;4.23;;;13.70;99.90;;;;;;6159835;23;20203;-80
2022/07/06 05:17:30;;;;;;;7.13;4.33;;;13.60;99.90;;;;;;6186033;23;20169;-80
2022/07/06 05:19:57;;;;;;;6.87;4.50;;;13.70;99.90;;;;;;6183407;23;20188;-80
2022/07/06 05:22:24;;;;;;;8.50;4.47;;;13.70;99.90;;;;;;6161700;23;20565;-80
2022/07/06 05:24:51;;;;;;;5.30;3.83;;;13.90;99.90;;;;;;6160861;23;20157;-80
2022/07/06 05:27:18;;;;;;;6.63;3.60;;;14.00;99.90;;;;;;6135905;23;20605;-80
2022/07/06 05:29:45;;;;;;;4.93;3.60;;;14.10;99.90;;;;;;6183136;23;20608;-80
2022/07/06 05:32:12;;;;;;;5.20;3.07;;;14.10;99.90;;;;;;6160287;23;20161;-80
2022/07/06 05:34:39;;;;;;;4.23;2.83;;;14.30;99.90;;;;;;6135331;23;20170;-80
2022/07/06 05:37:06;;;;;;;4.03;3.00;;;14.20;99.90;;;;;;6160964;23;20162;-81
2022/07/06 05:39:33;;;;;;;5.77;2.70;;;14.30;99.90;;;;;;6161655;23;20163;-81
2022/07/06 05:42:00;;;;;;;3.10;2.67;;;14.50;99.90;;;;;;6158923;23;20180;-80
2022/07/06 05:44:27;;;;;;;4.17;2.23;;;14.50;99.90;;;;;;6181469;23;20225;-80
2022/07/06 05:50:11;;;;;;;4.97;2.63;;;14.70;99.90;;;;;;6156508;23;20162;-83
2022/07/06 05:52:26;;;;;;;4.03;2.87;;;14.70;99.90;;;;;;6180821;23;20640;-79
2022/07/06 05:54:53;;;;;;;3.63;2.63;;;14.70;99.90;;;;;;6129611;23;20542;-80
2022/07/06 05:57:20;;;;;;;2.77;2.03;;;14.90;99.90;;;;;;6153293;23;20168;-82
2022/07/06 05:59:47;;;;;;;2.57;2.00;;;15.00;99.90;;;;;;6129574;23;20601;-82
2022/07/06 06:02:14;;;;;;;3.37;1.80;;;15.10;99.90;;;;;;6125918;23;20619;-81
2022/07/06 06:04:41;;;;;;;3.50;2.83;;;15.40;99.90;;;;;;6127879;23;20195;-80
2022/07/06 06:07:09;;;;;;;4.57;2.10;;;15.30;99.90;;;;;;6153457;23;20493;-83
2022/07/06 06:09:36;;;;;;;4.30;1.70;;;15.40;99.90;;;;;;6130558;23;20647;-84
2022/07/06 06:12:03;;;;;;;2.83;2.00;;;15.50;99.90;;;;;;6130737;23;20211;-84
2022/07/06 06:14:31;;;;;;;2.73;1.90;;;15.50;99.90;;;;;;6152980;23;20162;-84
2022/07/06 06:16:58;;;;;;;3.47;1.83;;;15.50;99.90;;;;;;6153246;23;20223;-84
2022/07/06 06:19:25;;;;;;;2.27;1.40;;;15.70;99.90;;;;;;6179979;23;20172;-84
2022/07/06 06:21:52;;;;;;;2.73;1.43;;;15.60;1.00;;;;;;6181619;23;20219;-84
2022/07/06 06:24:19;;;;;;;4.00;1.57;;;15.70;23.30;;;;;;6130940;23;20592;-83
2022/07/06 06:26:46;;;;;;;3.93;1.60;;;15.70;1.00;;;;;;6130742;23;20231;-84
2022/07/06 06:29:13;;;;;;;2.27;1.43;;;15.80;1.00;;;;;;6128784;23;20525;-84
2022/07/06 06:31:40;;;;;;;1.27;1.13;;;15.80;1.00;;;;;;6127732;23;20486;-84
2022/07/06 06:34:08;;;;;;;3.77;1.07;;;16.10;1.00;;;;;;6154424;23;20231;-84
2022/07/06 06:36:34;;;;;;;3.03;1.67;;;16.10;23.10;;;;;;6130098;23;20230;-83
2022/07/06 06:39:02;;;;;;;4.63;1.77;;;16.20;1.00;;;;;;6130010;23;20174;-83
2022/07/06 06:41:29;;;;;;;4.07;2.30;;;16.20;99.90;;;;;;6130283;23;20223;-84
2022/07/06 06:43:56;;;;;;;4.47;1.80;;;16.30;99.90;;;;;;6178107;23;20203;-83
2022/07/06 06:46:23;;;;;;;3.67;2.13;;;16.20;99.90;;;;;;6161607;23;20217;-83
2022/07/06 06:48:50;;;;;;;3.30;1.83;;;16.00;99.90;;;;;;6184886;23;20190;-84
2022/07/06 06:51:17;;;;;;;4.00;1.70;;;16.20;99.90;;;;;;6136260;23;20218;-86
2022/07/06 06:53:44;;;;;;;2.37;1.30;;;16.30;99.90;;;;;;6215011;23;20160;-84
2022/07/06 06:56:11;;;;;;;3.10;1.50;;;16.60;99.90;;;;;;6165194;23;20621;-84
2022/07/06 06:58:38;;;;;;;2.60;1.37;;;17.10;90.30;;;;;;6190905;23;20567;-83
2022/07/06 07:01:25;;;;;;;3.40;1.20;;;17.30;46.30;;;;;;6202307;23;20282;-82
2022/07/06 07:03:52;;;;;;;1.97;0.80;;;17.40;1.00;;;;;;6197841;23;20164;-84
2022/07/06 07:06:19;;;;;;;2.57;1.10;;;17.50;83.80;;;;;;6167862;23;20643;-85
2022/07/06 07:08:47;;;;;;;2.50;1.00;;;17.60;1.00;;;;;;6190396;23;20258;-83
2022/07/06 07:11:14;;;;;;;1.57;1.17;;;17.50;1.00;;;;;;6164645;23;20241;-83
2022/07/06 07:13:41;;;;;;;3.13;1.10;;;17.70;1.00;;;;;;6169594;23;20164;-84
2022/07/06 07:16:08;;;;;;;1.40;0.90;;;17.90;57.70;;;;;;6165686;23;20255;-85
2022/07/06 07:18:35;;;;;;;2.27;1.13;;;18.00;99.90;;;;;;6168754;23;20160;-84
2022/07/06 07:21:02;;;;;;;3.43;1.90;;;17.90;1.00;;;;;;6141602;23;20196;-83
2022/07/06 07:23:30;;;;;;;1.80;0.97;;;18.00;1.00;;;;;;6187675;23;20170;-85
2022/07/06 07:25:57;;;;;;;2.00;1.30;;;18.50;74.70;;;;;;6137885;23;20230;-83
2022/07/06 07:28:23;;;;;;;3.60;1.10;;;18.90;1.00;;;;;;6186317;23;20574;-84
2022/07/06 07:30:51;;;;;;;1.30;0.70;;;19.00;1.00;;;;;;6186912;23;20175;-84
2022/07/06 07:33:18;;;;;;;1.27;0.80;;;18.90;99.90;;;;;;6136107;23;20215;-83
2022/07/06 07:35:45;;;;;;;2.07;0.97;;;19.20;99.90;;;;;;6159342;23;20211;-84
2022/07/06 07:38:12;;;;;;;4.87;1.03;;;18.80;1.00;;;;;;6160110;23;20168;-83
2022/07/06 07:40:39;;;;;;;1.60;0.73;;;18.90;1.00;;;;;;6186916;23;20291;-84
2022/07/06 07:43:06;;;;;;;2.40;0.77;;;19.10;1.00;;;;;;6184632;23;20207;-85
2022/07/06 07:45:33;;;;;;;1.13;0.53;;;18.90;1.00;;;;;;6184969;23;20603;-86
2022/07/06 07:48:00;;;;;;;1.97;0.60;;;18.90;1.00;;;;;;6139534;23;20192;-85
2022/07/06 07:50:27;;;;;;;2.77;0.80;;;19.30;72.70;;;;;;6158982;23;21111;-85
2022/07/06 07:52:53;;;;;;;1.37;0.50;;;19.50;95.00;;;;;;6160596;23;20656;-86
2022/07/06 07:55:20;;;;;;;1.60;0.40;;;20.00;1.00;;;;;;6135370;23;20193;-85
2022/07/06 07:58:06;;;;;;;1.27;0.60;;;19.70;82.60;;;;;;6169133;23;20605;-86
2022/07/06 08:00:34;;;;;;;3.50;0.87;;;19.90;1.00;;;;;;6158366;23;20164;-85
2022/07/06 08:03:01;;;;;;;3.80;0.70;;;20.00;1.00;;;;;;6185801;23;20218;-85
2022/07/06 08:05:28;;;;;;;3.10;0.63;;;20.30;1.00;;;;;;6157434;23;20164;-84
2022/07/06 08:07:55;;;;;;;0.90;0.70;;;20.00;1.00;;;;;;6133199;23;20167;-87
2022/07/06 08:10:22;;;;;;;2.43;0.70;;;19.70;37.70;;;;;;6133873;23;20156;-86
2022/07/06 08:12:49;;;;;;;1.53;0.73;;;20.00;30.40;;;;;;6135691;23;20170;-85
2022/07/06 08:15:16;;;;;;;2.77;0.60;;;20.30;51.20;;;;;;6157951;23;20184;-89
2022/07/06 08:17:43;;;;;;;1.90;0.67;;;20.50;65.90;;;;;;6188116;23;20171;-87
2022/07/06 08:20:11;;;;;;;1.57;0.70;;;20.20;23.30;;;;;;6136469;23;20193;-86
2022/07/06 08:22:38;;;;;;;1.27;0.60;;;19.90;26.20;;;;;;6160928;23;20498;-89
2022/07/06 08:25:05;;;;;;;2.43;0.87;;;19.70;25.20;;;;;;6159515;23;20201;-87
2022/07/06 08:27:33;;;;;;;2.10;0.60;;;19.80;16.70;;;;;;6185115;23;20160;-88
2022/07/06 08:33:41;;;;;;;1.13;0.60;;;19.90;14.50;;;;;;6211870;23;20155;-87
2022/07/06 08:36:08;;;;;;;1.43;0.40;;;19.80;1.00;;;;;;6137560;23;20162;-87
2022/07/06 08:38:35;;;;;;;1.93;0.43;;;20.10;1.00;;;;;;6137629;23;20171;-86
2022/07/06 08:41:05;;;;;;;2.87;0.47;;;20.10;1.00;;;;;;6184541;23;20676;-88
2022/07/06 08:43:34;;;;;;;1.60;0.70;;;20.60;1.00;;;;;;6160018;23;20694;-87
2022/07/06 08:46:01;;;;;;;1.37;0.80;;;20.90;1.00;;;;;;6186080;23;20215;-88
2022/07/06 08:48:35;;;;;;;0.60;0.50;;;20.70;1.00;;;;;;6162971;23;20175;-85
2022/07/06 08:51:03;;;;;;;2.60;0.50;;;21.30;1.00;;;;;;6187849;23;20175;-86
2022/07/06 08:53:30;;;;;;;1.73;0.70;;;21.30;1.00;;;;;;6164428;23;20169;-85
2022/07/06 08:55:57;;;;;;;0.87;0.40;;;20.80;1.00;;;;;;6160185;23;20619;-86
2022/07/06 08:58:26;;;;;;;2.67;0.50;;;20.60;99.90;;;;;;6160815;23;20167;-89
2022/07/06 09:00:57;;;;;;;2.67;0.53;;;19.90;1.00;;;;;;6185330;23;20181;-86
2022/07/06 09:03:24;;;;;;;2.30;0.60;;;19.90;1.00;;;;;;6185175;23;20170;-87
2022/07/06 09:05:52;;;;;;;2.97;0.93;;;20.30;99.90;;;;;;6159798;23;20183;-90
2022/07/06 09:08:24;;;;;;;2.10;0.60;;;20.40;1.00;;;;;;6159789;23;20164;-87
2022/07/06 09:10:51;;;;;;;2.83;0.85;;;20.60;1.00;;;;;;6185682;23;20458;-83
2022/07/06 09:13:18;;;;;;;1.47;0.53;;;21.10;1.00;;;;;;6183965;23;20168;-83
2022/07/06 09:15:45;;;;;;;1.10;0.73;;;21.40;99.90;;;;;;6132226;23;20749;-80
2022/07/06 09:18:12;;;;;;;2.60;1.83;;;21.50;1.00;;;;;;6158252;23;20203;-81
2022/07/06 09:20:41;;;;;;;1.80;1.10;;;21.40;1.00;;;;;;6125729;23;20172;-80
2022/07/06 09:23:08;;;;;;;1.97;1.10;;;21.50;1.00;;;;;;6181421;23;20253;-80
2022/07/06 09:25:43;;;;;;;2.73;0.50;;;22.20;1.00;;;;;;6160082;23;20561;-81
2022/07/06 09:28:09;;;;;;;3.23;1.37;;;22.80;34.10;;;;;;6158292;23;20930;-81
2022/07/06 09:30:40;;;;;;;2.00;0.90;;;23.40;1.00;;;;;;6133597;23;20156;-81
2022/07/06 09:33:09;;;;;;;2.60;1.17;;;22.90;1.00;;;;;;6182128;23;20161;-80
2022/07/06 09:35:37;;;;;;;2.10;0.60;;;22.30;1.00;;;;;;6179109;23;20175;-81
2022/07/06 09:38:14;;;;;;;1.80;0.70;;;22.00;1.00;;;;;;6180249;23;20495;-80
2022/07/06 09:40:45;;;;;;;2.50;0.97;;;22.00;1.00;;;;;;6207429;23;20788;-80
2022/07/06 09:43:23;;;;;;;3.80;0.90;;;21.70;1.00;;;;;;6177119;23;20217;-82
2022/07/06 09:45:55;;;;;;;0.70;0.70;;;21.60;1.00;;;;;;6180422;23;20270;-81
2022/07/06 09:48:27;;;;;;;1.63;0.70;;;21.50;1.00;;;;;;6155715;23;20272;-82
2022/07/06 09:51:02;;;;;;;2.33;0.80;;;22.00;1.00;;;;;;6179391;23;20163;-80
2022/07/06 09:53:29;;;;;;;1.43;0.67;;;21.20;1.00;;;;;;6207138;23;20207;-81
2022/07/06 09:56:01;;;;;;;2.20;0.83;;;21.30;1.00;;;;;;6154564;23;20199;-80
2022/07/06 09:58:28;;;;;;;2.30;0.60;;;21.40;1.00;;;;;;6179747;23;20178;-79
2022/07/06 10:01:27;;;;;;;2.67;0.80;;;21.50;1.00;;;;;;6184238;23;20200;-79
2022/07/06 10:03:54;;;;;;;2.07;0.57;;;21.70;1.00;;;;;;6181089;23;20187;-79
2022/07/06 10:06:25;;;;;;;0.97;0.40;;;21.40;1.00;;;;;;6157166;23;20230;-80
2022/07/06 10:08:54;;;;;;;0.77;0.40;;;21.30;1.00;;;;;;6207038;23;20156;-80
2022/07/06 10:11:23;;;;;;;1.80;0.50;;;21.20;1.00;;;;;;6155229;23;20551;-80
2022/07/06 10:13:55;;;;;;;0.77;0.40;;;21.30;1.00;;;;;;6206456;23;20253;-80
2022/07/06 10:16:24;;;;;;;2.13;1.57;;;21.20;1.00;;;;;;6155109;23;20157;-80
2022/07/06 10:18:55;;;;;;;0.70;0.50;;;21.10;1.00;;;;;;6208125;23;20603;-80
2022/07/06 10:21:22;;;;;;;1.50;0.50;;;21.00;1.00;;;;;;6179838;23;20600;-80
2022/07/06 10:23:50;;;;;;;1.93;0.63;;;21.20;1.00;;;;;;6157157;23;20207;-80
2022/07/06 10:26:18;;;;;;;1.07;0.50;;;21.50;1.00;;;;;;6183533;23;20161;-79
2022/07/06 10:28:48;;;;;;;6.07;0.90;;;21.40;1.00;;;;;;6210788;23;20543;-80
2022/07/06 10:31:17;;;;;;;1.23;0.50;;;21.10;1.00;;;;;;6208737;23;20267;-80
2022/07/06 10:33:47;;;;;;;1.10;0.70;;;21.30;1.00;;;;;;6181547;23;20615;-79
2022/07/06 10:36:15;;;;;;;1.57;0.50;;;21.10;1.00;;;;;;6155771;23;20713;-80
2022/07/06 10:38:49;;;;;;;0.73;0.60;;;21.30;1.00;;;;;;6183307;23;20191;-80
2022/07/06 10:41:16;;;;;;;3.60;0.67;;;21.40;1.00;;;;;;6208579;23;20190;-80
2022/07/06 10:43:46;;;;;;;0.77;0.50;;;21.40;1.00;;;;;;6132389;23;20208;-79
2022/07/06 10:46:16;;;;;;;2.23;0.50;;;21.30;1.00;;;;;;6183515;23;20156;-80
2022/07/06 10:48:45;;;;;;;1.07;0.50;;;21.20;1.00;;;;;;6134223;23;20164;-78
2022/07/06 10:51:22;;;;;;;1.20;0.60;;;21.20;1.00;;;;;;6185989;23;20271;-80
2022/07/06 10:54:01;;;;;;;0.93;0.40;;;21.80;1.00;;;;;;6160295;23;20196;-80
2022/07/06 10:56:35;;;;;;;1.30;0.67;;;21.60;1.00;;;;;;6210475;23;20227;-80
2022/07/06 10:59:22;;;;;;;0.67;0.60;;;21.40;1.00;;;;;;6184271;23;20161;-80
2022/07/06 11:02:11;;;;;;;1.80;0.60;;;21.50;1.00;;;;;;6185136;23;20191;-80
2022/07/06 11:04:39;;;;;;;4.40;0.60;;;22.00;1.00;;;;;;6184656;23;20161;-80
2022/07/06 11:07:11;;;;;;;1.37;0.50;;;21.90;1.00;;;;;;6184486;23;20163;-80
2022/07/06 11:09:42;;;;;;;1.93;0.70;;;22.20;1.00;;;;;;6183875;23;20190;-79
2022/07/06 11:12:19;;;;;;;2.03;0.70;;;22.10;1.00;;;;;;6188040;23;20497;-79
2022/07/06 11:14:51;;;;;;;0.40;0.27;;;21.70;1.00;;;;;;6185184;23;20168;-78
2022/07/06 11:17:18;;;;;;;0.77;0.57;;;22.40;1.00;;;;;;6158565;23;20195;-80
2022/07/06 11:19:49;;;;;;;1.43;0.80;;;22.30;1.00;;;;;;6159692;23;20264;-80
2022/07/06 11:22:18;;;;;;;1.87;0.50;;;22.90;1.00;;;;;;6184794;23;20184;-79
2022/07/06 11:24:46;;;;;;;1.33;0.63;;;23.90;99.90;;;;;;6183833;23;20163;-79
2022/07/06 11:27:13;;;;;;;2.97;0.80;;;24.00;99.90;;;;;;6182320;23;20168;-79
2022/07/06 11:29:40;;;;;;;3.10;0.47;;;24.30;99.90;;;;;;6182055;23;20161;-79
2022/07/06 11:32:11;;;;;;;2.00;0.70;;;24.60;99.90;;;;;;6208764;23;20171;-79
2022/07/06 11:34:43;;;;;;;1.47;0.50;;;24.50;99.90;;;;;;6182138;23;20267;-79
2022/07/06 11:37:13;;;;;;;1.37;0.53;;;24.40;48.30;;;;;;6209897;23;20614;-80
2022/07/06 11:39:42;;;;;;;1.13;0.30;;;23.30;1.00;;;;;;6184377;23;20249;-79
2022/07/06 11:42:11;;;;;;;1.40;0.50;;;23.80;1.00;;;;;;6178740;23;20248;-80
2022/07/06 11:44:40;;;;;;;1.90;0.70;;;23.90;99.90;;;;;;6152087;23;20237;-79
2022/07/06 11:47:09;;;;;;;0.47;0.30;;;24.20;99.90;;;;;;6153772;23;20162;-80
2022/07/06 11:49:37;;;;;;;0.87;0.60;;;23.60;1.00;;;;;;6153114;23;20163;-79
2022/07/06 11:52:08;;;;;;;1.53;0.57;;;24.70;99.90;;;;;;6152292;23;20168;-80
2022/07/06 11:54:35;;;;;;;2.87;0.73;;;23.90;42.70;;;;;;6177532;23;20579;-79
2022/07/06 11:57:06;;;;;;;1.00;0.60;;;24.70;99.90;;;;;;6126490;23;20175;-79
2022/07/06 11:59:34;;;;;;;0.67;0.50;;;24.20;99.90;;;;;;6127356;23;20219;-78
2022/07/06 12:02:06;;;;;;;2.87;0.57;;;23.80;52.20;;;;;;6152272;23;20212;-79
2022/07/06 12:04:35;;;;;;;1.33;0.50;;;23.70;1.00;;;;;;6152061;23;20200;-79
2022/07/06 12:07:05;;;;;;;0.40;0.40;;;24.10;98.00;;;;;;6151678;23;20165;-79
2022/07/06 12:09:36;;;;;;;0.67;0.50;;;24.60;27.60;;;;;;6153220;23;20226;-79
2022/07/06 12:12:04;;;;;;;1.03;0.57;;;24.00;99.90;;;;;;6127043;23;20169;-78
2022/07/06 12:14:33;;;;;;;2.27;0.60;;;23.10;1.00;;;;;;6152385;23;20164;-79
2022/07/06 12:17:09;;;;;;;2.43;0.67;;;23.50;99.90;;;;;;6178120;23;20476;-79
2022/07/06 12:19:37;;;;;;;1.00;0.47;;;23.80;1.00;;;;;;6151601;23;20487;-79
2022/07/06 12:22:05;;;;;;;3.60;0.63;;;23.50;99.90;;;;;;6125834;23;20891;-79
2022/07/06 12:24:34;;;;;;;1.53;0.43;;;23.70;99.90;;;;;;6150674;23;20227;-81
2022/07/06 12:27:13;;;;;;;1.40;0.50;;;24.00;99.90;;;;;;6150103;23;20161;-78
2022/07/06 12:29:40;;;;;;;0.53;0.40;;;24.40;99.90;;;;;;6176448;23;20227;-78
2022/07/06 12:32:13;;;;;;;1.50;0.50;;;24.60;99.90;;;;;;6176584;23;20176;-78
2022/07/06 12:34:40;;;;;;;3.70;0.60;;;25.30;99.90;;;;;;6125694;23;20172;-79
2022/07/06 12:37:08;;;;;;;0.77;0.77;;;24.70;99.90;;;;;;6128303;23;20616;-79
2022/07/06 12:39:47;;;;;;;1.40;0.60;;;24.50;99.90;;;;;;6128487;23;20164;-79
2022/07/06 12:42:15;;;;;;;1.27;0.80;;;24.70;99.90;;;;;;6148615;23;20977;-79
2022/07/06 12:44:50;;;;;;;1.53;0.67;;;25.20;99.90;;;;;;6153216;23;20157;-81
2022/07/06 12:47:21;;;;;;;2.00;0.63;;;24.70;99.90;;;;;;6149615;23;20157;-80
2022/07/06 12:49:48;;;;;;;1.37;0.70;;;24.50;99.90;;;;;;6147290;23;20196;-79
2022/07/06 12:52:16;;;;;;;2.97;1.00;;;23.90;99.90;;;;;;6128488;23;20165;-79
2022/07/06 12:54:48;;;;;;;1.30;0.80;;;23.70;33.30;;;;;;6176776;23;20248;-79
2022/07/06 12:57:25;;;;;;;0.93;0.83;;;23.70;69.10;;;;;;6152121;23;20167;-79
2022/07/06 12:59:57;;;;;;;1.07;0.90;;;23.90;99.90;;;;;;6176764;23;20605;-80
2022/07/06 13:02:29;;;;;;;1.37;0.70;;;23.90;99.90;;;;;;6152071;23;20268;-80
2022/07/06 13:05:16;;;;;;;2.43;0.90;;;24.70;99.90;;;;;;6154146;23;20605;-80